Time;durP1;ratioP1;P1;durP2;ratioP2;P2;SDS_P1;SDS_P2;PMS_P1;PMS_P2;Temp;Humidity;BMP_temperature;BMP_pressure;BME280_temperature;BME280_humidity;BME280_pressure;Samples;Min_cycle;Max_cycle;Signal;HPM_P1;HPM_P2
2021/12/11 00:01:54;;;;;;;63.80;32.08;;;;;;;7.50;59.22;99201.42;2423793;81;25684;-73
2021/12/11 00:05:23;;;;;;;62.00;34.30;;;;;;;7.51;59.20;99208.77;2423960;81;25591;-72
2021/12/11 00:08:49;;;;;;;68.05;35.08;;;;;;;7.51;59.17;99221.31;2391415;82;26755;-72
2021/12/11 00:12:24;;;;;;;64.47;32.50;;;;;;;7.52;59.13;99216.98;2408845;81;25713;-73
2021/12/11 00:15:49;;;;;;;63.02;32.88;;;;;;;7.51;59.11;99208.77;2463734;76;25667;-73
2021/12/11 00:19:18;;;;;;;68.30;33.95;;;;;;;7.50;59.07;99201.42;2463276;80;25718;-73
2021/12/11 00:22:42;;;;;;;59.73;33.67;;;;;;;7.51;59.02;99213.95;2462685;80;25202;-73
2021/12/11 00:26:07;;;;;;;61.18;32.33;;;;;;;7.50;58.98;99223.46;2458450;79;26473;-73
2021/12/11 00:29:36;;;;;;;61.20;32.93;;;;;;;7.50;58.97;99213.09;2457295;80;25591;-73
2021/12/11 00:33:01;;;;;;;58.35;32.25;;;;;;;7.50;58.93;99224.76;2459517;80;25750;-73
2021/12/11 00:36:31;;;;;;;54.20;30.30;;;;;;;7.50;58.92;99223.46;2369485;83;25820;-72
2021/12/11 00:40:01;;;;;;;61.58;31.55;;;;;;;7.51;58.89;99226.92;2297866;86;25771;-73
2021/12/11 00:43:29;;;;;;;56.73;31.15;;;;;;;7.50;58.88;99219.57;2299239;86;25848;-73
2021/12/11 00:46:55;;;;;;;59.98;31.35;;;;;;;7.50;58.82;99226.05;2283215;85;25611;-73
2021/12/11 00:50:47;;;;;;;57.80;32.13;;;;;;;7.50;58.83;99226.05;2265234;85;25705;-73
2021/12/11 00:54:17;;;;;;;58.78;32.13;;;;;;;7.49;58.79;99230.80;2282720;83;25643;-73
2021/12/11 00:57:40;;;;;;;57.65;32.13;;;;;;;7.51;58.78;99237.30;2320909;84;25856;-73
2021/12/11 01:01:09;;;;;;;55.20;32.17;;;;;;;7.51;58.75;99239.89;2320315;85;26224;-73
2021/12/11 01:04:41;;;;;;;56.68;30.55;;;;;;;7.51;58.74;99242.48;2320256;85;25731;-73
2021/12/11 01:08:39;;;;;;;53.05;28.38;;;;;;;7.51;58.70;99240.75;2320199;85;25689;-73
2021/12/11 01:12:21;;;;;;;63.00;31.97;;;;;;;7.51;58.68;99242.05;2280820;85;25687;-72
2021/12/11 01:15:55;;;;;;;56.25;29.65;;;;;;;7.51;58.67;99243.34;2283398;82;25801;-73
2021/12/11 01:19:22;;;;;;;59.10;29.27;;;;;;;7.51;58.65;99258.05;2257087;87;25795;-73
2021/12/11 01:22:48;;;;;;;57.03;30.12;;;;;;;7.52;58.63;99266.27;2256231;86;25676;-72
2021/12/11 01:26:13;;;;;;;60.60;30.92;;;;;;;7.51;58.59;99260.20;2254659;86;25804;-72
2021/12/11 01:29:36;;;;;;;52.78;27.87;;;;;;;7.52;58.56;99268.42;2256588;86;25767;-74
2021/12/11 01:32:59;;;;;;;58.28;30.45;;;;;;;7.52;58.54;99267.13;2270525;86;25881;-73
2021/12/11 01:36:20;;;;;;;54.53;31.50;;;;;;;7.51;58.53;99272.30;2279290;86;25679;-73
2021/12/11 01:39:42;;;;;;;54.55;29.50;;;;;;;7.52;58.51;99264.97;2282056;86;25683;-72
2021/12/11 01:43:07;;;;;;;53.90;27.55;;;;;;;7.52;58.48;99268.86;2281147;86;25745;-74
2021/12/11 01:46:28;;;;;;;54.48;29.23;;;;;;;7.51;58.48;99272.30;2281030;80;25811;-73
2021/12/11 01:49:54;;;;;;;52.85;28.38;;;;;;;7.51;58.45;99278.79;2281699;86;25774;-73
2021/12/11 01:53:24;;;;;;;54.15;28.17;;;;;;;7.51;58.42;99288.73;2324613;85;25655;-73
2021/12/11 01:56:53;;;;;;;52.98;28.80;;;;;;;7.51;58.40;99291.75;2309740;84;25789;-73
2021/12/11 02:00:20;;;;;;;55.23;29.48;;;;;;;7.50;58.40;99294.77;2322143;85;25782;-75
2021/12/11 02:03:42;;;;;;;58.23;28.55;;;;;;;7.49;58.36;99289.14;2319934;85;25721;-76
2021/12/11 02:07:15;;;;;;;53.58;29.50;;;;;;;7.48;58.33;99292.56;2423609;80;25647;-75
2021/12/11 02:10:57;;;;;;;52.98;28.83;;;;;;;7.49;58.33;99286.55;2447991;80;25544;-75
2021/12/11 02:14:31;;;;;;;54.67;27.60;;;;;;;7.49;58.30;99298.62;2448844;80;25691;-74
2021/12/11 02:18:00;;;;;;;55.25;27.05;;;;;;;7.49;58.28;99299.91;2445194;80;25729;-74
2021/12/11 02:21:30;;;;;;;53.95;27.30;;;;;;;7.47;58.26;99303.80;2443596;80;25574;-74
2021/12/11 02:24:54;;;;;;;;;;;;;;;7.47;58.23;99298.60;2451413;80;25684;-74
2021/12/11 02:28:30;;;;;;;51.88;28.67;;;;;;;7.47;58.23;99307.69;2445947;80;25588;-73
2021/12/11 02:32:12;;;;;;;55.52;26.80;;;;;;;7.47;58.22;99315.45;2448659;80;25688;-77
2021/12/11 02:35:38;;;;;;;46.30;26.48;;;;;;;7.47;58.20;99322.37;2447281;80;25696;-72
2021/12/11 02:39:20;;;;;;;46.42;25.12;;;;;;;7.47;58.16;99326.26;2448519;80;25388;-73
2021/12/11 02:42:50;;;;;;;56.25;28.23;;;;;;;7.46;58.15;99325.39;2445964;80;25605;-72
2021/12/11 02:46:25;;;;;;;49.98;27.05;;;;;;;7.45;58.16;99327.51;2411326;82;25724;-73
2021/12/11 02:49:57;;;;;;;48.38;25.72;;;;;;;7.46;58.13;99342.64;2411975;82;25744;-73
2021/12/11 02:53:45;;;;;;;50.52;26.82;;;;;;;7.45;58.11;99348.25;2410015;81;26243;-75
2021/12/11 02:57:26;;;;;;;50.12;26.05;;;;;;;7.46;58.11;99365.58;2408966;82;25803;-73
2021/12/11 03:00:59;;;;;;;46.35;25.40;;;;;;;7.45;58.08;99365.53;2410588;82;25674;-73
2021/12/11 03:04:31;;;;;;;48.00;25.08;;;;;;;7.44;58.06;99371.15;2408148;82;25730;-72
2021/12/11 03:07:53;;;;;;;55.98;25.68;;;;;;;7.44;58.06;99383.24;2411239;81;25694;-73
2021/12/11 03:11:19;;;;;;;50.75;26.35;;;;;;;7.43;58.04;99385.40;2408241;82;25982;-72
2021/12/11 03:14:42;;;;;;;47.10;25.23;;;;;;;7.44;58.04;99383.24;2362521;83;25781;-73
2021/12/11 03:18:06;;;;;;;47.85;25.72;;;;;;;7.45;58.00;99384.98;2361451;83;25781;-72
2021/12/11 03:21:27;;;;;;;54.60;26.68;;;;;;;7.44;57.99;99391.89;2362000;82;26078;-74
2021/12/11 03:24:49;;;;;;;52.60;25.52;;;;;;;7.43;57.96;99388.86;2362174;83;25472;-73
2021/12/11 03:28:13;;;;;;;51.23;26.42;;;;;;;7.44;57.95;99390.59;2361196;83;25735;-72
2021/12/11 03:31:37;;;;;;;48.45;24.65;;;;;;;7.44;57.95;99388.44;2360855;83;25308;-73
2021/12/11 03:34:58;;;;;;;46.90;25.72;;;;;;;7.44;57.93;99385.84;2360310;83;25254;-73
2021/12/11 03:38:23;;;;;;;50.35;25.43;;;;;;;7.43;57.90;99399.23;2360548;83;25740;-73
2021/12/11 03:41:47;;;;;;;44.77;24.18;;;;;;;7.43;57.90;99393.17;2372386;82;25626;-74
2021/12/11 03:45:19;;;;;;;51.10;26.05;;;;;;;7.41;57.89;99383.18;2395274;81;25442;-72
2021/12/11 03:48:46;;;;;;;47.43;24.95;;;;;;;7.41;57.87;99383.18;2393665;81;25667;-73
2021/12/11 03:52:10;;;;;;;46.45;24.20;;;;;;;7.39;57.86;99390.95;2398509;81;25687;-72
2021/12/11 03:55:42;;;;;;;47.40;24.77;;;;;;;7.38;57.84;99388.30;2396215;81;26326;-72
2021/12/11 03:59:11;;;;;;;45.60;25.05;;;;;;;7.38;57.82;99382.69;2397708;82;25681;-72
2021/12/11 04:02:37;;;;;;;48.13;24.23;;;;;;;7.37;57.80;99387.86;2398628;82;25665;-73
2021/12/11 04:06:02;;;;;;;50.05;25.35;;;;;;;7.36;57.79;99394.77;2398149;82;25737;-73
2021/12/11 04:09:37;;;;;;;46.23;24.20;;;;;;;7.34;57.79;99407.68;2398928;81;25674;-74
2021/12/11 04:13:08;;;;;;;45.85;23.50;;;;;;;7.33;57.76;99411.55;2424274;80;25695;-73
2021/12/11 04:16:30;;;;;;;47.93;25.95;;;;;;;7.31;57.75;99406.74;2447753;80;25652;-73
2021/12/11 04:19:55;;;;;;;47.58;25.17;;;;;;;7.32;57.74;99396.81;2448785;80;25160;-73
2021/12/11 04:23:20;;;;;;;43.87;23.22;;;;;;;7.32;57.72;99400.70;2449688;80;25555;-73
2021/12/11 04:26:41;;;;;;;45.25;22.87;;;;;;;7.32;57.72;99406.80;2425956;80;25588;-73
2021/12/11 04:34:08;;;;;;;45.17;22.32;;;;;;;7.31;57.70;99412.80;2445924;80;25563;-72
2021/12/11 04:37:32;;;;;;;45.55;23.75;;;;;;;7.31;57.68;99423.59;2449479;80;25621;-73
2021/12/11 04:40:58;;;;;;;44.20;21.65;;;;;;;7.31;57.66;99431.38;2449864;80;25849;-72
2021/12/11 04:44:36;;;;;;;46.63;23.95;;;;;;;7.30;57.64;99430.50;2449628;80;25653;-73
2021/12/11 04:48:05;;;;;;;40.10;21.85;;;;;;;7.30;57.63;99435.69;2449128;80;25624;-73
2021/12/11 04:51:30;;;;;;;41.90;21.73;;;;;;;7.30;57.62;99436.98;2447947;80;25653;-73
2021/12/11 05:05:30;;;;;;;43.73;23.35;;;;;;;7.30;57.55;99451.67;2350071;83;25634;-73
2021/12/11 05:12:35;;;;;;;38.55;21.93;;;;;;;7.30;57.54;99461.61;2310837;85;25744;-74
2021/12/11 05:15:56;;;;;;;45.98;22.10;;;;;;;7.30;57.51;99458.15;2316289;85;25691;-73
2021/12/11 05:19:20;;;;;;;37.88;21.75;;;;;;;7.30;57.51;99463.33;2270686;86;25705;-73
2021/12/11 05:22:41;;;;;;;42.60;20.70;;;;;;;7.28;57.49;99464.58;2272284;86;25343;-75
2021/12/11 05:26:04;;;;;;;39.25;22.27;;;;;;;7.29;57.49;99479.31;2271852;87;25840;-73
2021/12/11 05:29:25;;;;;;;38.40;21.23;;;;;;;7.29;57.47;99485.80;2274966;86;25732;-72
2021/12/11 05:32:47;;;;;;;41.10;22.00;;;;;;;7.29;57.46;99485.80;2280768;85;25696;-72
2021/12/11 05:36:15;;;;;;;40.10;20.40;;;;;;;7.30;57.45;99487.96;2309754;84;25749;-74
2021/12/11 05:39:37;;;;;;;41.20;20.95;;;;;;;7.30;57.42;99492.72;2279640;86;25754;-72
2021/12/11 05:42:59;;;;;;;36.68;19.65;;;;;;;7.30;57.40;99494.02;2313785;83;25817;-72
2021/12/11 05:46:21;;;;;;;39.73;21.85;;;;;;;7.30;57.40;99499.63;2328557;83;25561;-73
2021/12/11 05:49:44;;;;;;;39.13;21.35;;;;;;;7.29;57.38;99496.59;2356543;83;25792;-73
2021/12/11 05:53:06;;;;;;;36.23;20.55;;;;;;;7.31;57.35;99498.78;2359609;82;25623;-73
2021/12/11 05:56:34;;;;;;;37.20;20.15;;;;;;;7.30;57.38;99503.52;2390417;82;25661;-72
2021/12/11 05:59:53;;;;;;;41.70;22.48;;;;;;;7.31;57.36;99506.55;2352395;83;26089;-74
2021/12/11 06:03:27;;;;;;;38.93;20.37;;;;;;;7.30;57.36;99515.19;2388162;82;25717;-74
2021/12/11 06:06:55;;;;;;;33.38;20.15;;;;;;;7.30;57.33;99520.37;2352740;83;25596;-73
2021/12/11 06:10:19;;;;;;;34.58;19.85;;;;;;;7.30;57.32;99522.54;2390255;82;25650;-73
2021/12/11 06:13:41;;;;;;;40.20;20.45;;;;;;;7.30;57.30;99521.67;2351326;82;25683;-73
2021/12/11 06:17:10;;;;;;;36.15;20.40;;;;;;;7.29;57.29;99516.91;2355809;83;25607;-72
2021/12/11 06:20:33;;;;;;;43.10;21.48;;;;;;;7.30;57.27;99522.96;2354399;83;25641;-72
2021/12/11 06:23:54;;;;;;;35.28;20.70;;;;;;;7.30;57.27;99534.20;2355981;83;25527;-73
2021/12/11 06:27:16;;;;;;;41.75;21.17;;;;;;;7.30;57.28;99534.20;2354206;83;25543;-73
2021/12/11 06:30:39;;;;;;;37.93;20.62;;;;;;;7.31;57.26;99538.97;2354638;83;25820;-73
2021/12/11 06:34:04;;;;;;;41.48;20.95;;;;;;;7.31;57.27;99546.73;2354301;83;26001;-73
2021/12/11 06:37:31;;;;;;;37.10;20.32;;;;;;;7.30;57.22;99545.00;2350819;83;25645;-73
2021/12/11 06:41:04;;;;;;;35.38;20.50;;;;;;;7.31;57.21;99546.31;2351585;82;25617;-74
2021/12/11 06:44:28;;;;;;;33.90;19.55;;;;;;;7.32;57.20;99543.30;2347003;83;25525;-73
2021/12/11 06:48:11;;;;;;;35.03;19.60;;;;;;;7.32;57.19;99544.59;2349004;82;26333;-74
2021/12/11 06:51:33;;;;;;;32.25;18.62;;;;;;;7.32;57.19;99551.98;2352706;83;25737;-72
2021/12/11 06:55:01;;;;;;;35.17;21.12;;;;;;;7.33;57.18;99555.02;2350009;83;25609;-73
2021/12/11 06:58:22;;;;;;;34.78;19.27;;;;;;;7.35;57.16;99557.63;2321424;84;25887;-73
2021/12/11 07:01:51;;;;;;;38.98;20.02;;;;;;;7.37;57.16;99574.55;2364717;82;26334;-75
2021/12/11 07:05:15;;;;;;;36.15;20.60;;;;;;;7.37;57.14;99570.22;2386869;82;26090;-73
2021/12/11 07:08:39;;;;;;;37.40;21.77;;;;;;;7.39;57.11;99561.17;2389256;81;25641;-73
2021/12/11 07:12:01;;;;;;;36.35;20.82;;;;;;;7.41;57.11;99565.98;2388482;82;25669;-73
2021/12/11 07:15:23;;;;;;;35.85;20.08;;;;;;;7.42;57.07;99573.78;2504766;78;25549;-74
2021/12/11 07:18:56;;;;;;;33.45;19.60;;;;;;;7.43;57.06;99575.56;2479813;78;25850;-74
2021/12/11 07:22:17;;;;;;;39.83;19.95;;;;;;;7.47;57.04;99582.98;2501987;77;25667;-75
2021/12/11 07:25:50;;;;;;;33.78;20.12;;;;;;;7.52;56.99;99588.72;2545820;77;25233;-74
2021/12/11 07:29:16;;;;;;;39.83;22.05;;;;;;;7.58;56.96;99587.98;2557202;76;25629;-73
2021/12/11 07:32:46;;;;;;;39.45;20.72;;;;;;;7.65;56.88;99595.06;2557157;77;25571;-74
2021/12/11 07:36:10;;;;;;;33.73;19.82;;;;;;;7.69;56.82;99602.06;2557994;77;25792;-72
2021/12/11 07:39:34;;;;;;;35.30;20.35;;;;;;;7.75;56.78;99606.53;2557954;77;25500;-76
2021/12/11 07:42:56;;;;;;;40.05;21.87;;;;;;;7.81;56.71;99600.19;2558188;77;25935;-74
2021/12/11 07:46:27;;;;;;;41.08;20.43;;;;;;;7.87;56.68;99618.49;2558460;76;25650;-76
2021/12/11 07:49:48;;;;;;;34.75;20.45;;;;;;;7.91;56.59;99616.84;2557010;77;25809;-73
2021/12/11 07:53:12;;;;;;;37.70;19.30;;;;;;;7.95;56.54;99623.41;2558568;77;25610;-74
2021/12/11 07:56:35;;;;;;;37.60;20.25;;;;;;;7.98;56.52;99618.30;2557683;77;25692;-75
2021/12/11 07:59:56;;;;;;;39.88;19.45;;;;;;;8.05;56.51;99631.86;2558094;77;25646;-72
2021/12/11 08:03:19;;;;;;;36.33;20.23;;;;;;;8.13;56.46;99628.55;2558794;77;25645;-74
2021/12/11 08:06:44;;;;;;;39.35;19.82;;;;;;;8.17;56.39;99624.77;2558444;77;25674;-75
2021/12/11 08:10:28;;;;;;;37.48;20.50;;;;;;;8.24;56.33;99638.75;2551771;77;25635;-73
2021/12/11 08:13:51;;;;;;;34.45;20.57;;;;;;;8.27;56.29;99642.72;2549513;77;25852;-73
2021/12/11 08:17:13;;;;;;;36.35;20.32;;;;;;;8.32;56.23;99648.87;2508513;77;25782;-83
2021/12/11 08:20:37;;;;;;;39.08;21.05;;;;;;;8.40;56.19;99651.22;2500147;78;25807;-76
2021/12/11 08:24:04;;;;;;;42.08;22.00;;;;;;;8.44;56.09;99664.75;2501740;79;25647;-73
2021/12/11 08:27:52;;;;;;;39.10;19.75;;;;;;;8.43;56.02;99666.88;2492511;78;25615;-73
2021/12/11 08:31:15;;;;;;;39.95;19.77;;;;;;;8.43;56.01;99675.09;2497886;79;25819;-73
2021/12/11 08:34:42;;;;;;;33.75;19.87;;;;;;;8.42;55.99;99678.11;2498279;79;25934;-72
2021/12/11 08:38:19;;;;;;;41.35;20.30;;;;;;;8.43;55.97;99688.08;2495549;78;25713;-73
2021/12/11 08:41:59;;;;;;;43.48;22.32;;;;;;;8.43;55.95;99689.37;2488267;77;25648;-73
2021/12/11 08:45:25;;;;;;;43.95;22.05;;;;;;;8.42;55.94;99688.93;2469788;79;26232;-72
2021/12/11 08:49:26;;;;;;;37.95;20.40;;;;;;;8.41;55.94;99701.47;2494162;79;25673;-74
2021/12/11 08:53:04;;;;;;;42.08;22.37;;;;;;;8.39;55.95;99709.21;2489305;79;25710;-73
2021/12/11 08:56:50;;;;;;;44.67;21.70;;;;;;;8.39;55.97;99712.23;2493482;79;25616;-72
2021/12/11 09:00:52;;;;;;;35.88;20.25;;;;;;;8.39;55.98;99714.84;2405206;80;25966;-73
2021/12/11 09:04:48;;;;;;;38.05;21.12;;;;;;;8.39;55.99;99720.03;2371795;83;25720;-73
2021/12/11 09:08:32;;;;;;;41.55;21.95;;;;;;;8.38;55.98;99717.86;2398243;80;25888;-73
2021/12/11 09:12:11;;;;;;;40.48;21.82;;;;;;;8.40;55.98;99723.08;2394773;80;25807;-75
2021/12/11 09:15:41;;;;;;;43.23;21.97;;;;;;;8.40;55.99;99729.56;2368108;81;25977;-73
2021/12/11 09:19:25;;;;;;;38.73;21.50;;;;;;;8.41;55.99;99738.70;2181244;89;25756;-73
2021/12/11 09:23:25;;;;;;;39.65;20.43;;;;;;;8.41;55.99;99746.92;2136612;92;25901;-73
2021/12/11 09:27:37;;;;;;;42.27;21.42;;;;;;;8.42;55.99;99753.86;2144407;89;25925;-79
2021/12/11 09:31:57;;;;;;;37.80;22.13;;;;;;;8.41;56.00;99757.31;2118381;93;26544;-81
2021/12/11 09:35:35;;;;;;;32.67;19.95;;;;;;;8.48;57.80;99758.77;2106180;93;25920;-78
2021/12/11 09:39:25;;;;;;;30.25;17.75;;;;;;;9.12;67.03;99764.42;2107204;92;25842;-73
2021/12/11 09:42:48;;;;;;;35.08;20.77;;;;;;;9.57;64.10;99770.02;2109992;93;25850;-72
2021/12/11 09:46:14;;;;;;;33.35;19.82;;;;;;;9.58;63.31;99786.08;2115545;93;25787;-73
2021/12/11 09:49:44;;;;;;;35.43;21.20;;;;;;;9.54;63.13;99786.88;2120037;93;25440;-72
2021/12/11 09:53:05;;;;;;;43.02;22.13;;;;;;;9.50;62.83;99786.38;2132150;91;25833;-76
2021/12/11 09:56:34;;;;;;;38.47;20.87;;;;;;;9.47;62.51;99794.13;2193682;89;27298;-72
2021/12/11 09:59:59;;;;;;;45.40;24.00;;;;;;;9.45;62.29;99791.94;2197296;89;25708;-72
2021/12/11 10:03:26;;;;;;;44.18;22.48;;;;;;;9.45;61.96;99803.22;2187963;86;25768;-72
2021/12/11 10:10:24;;;;;;;45.85;24.20;;;;;;;9.46;61.37;99816.67;2299224;83;25993;-73
2021/12/11 10:13:56;;;;;;;71.65;31.02;;;;;;;9.49;61.18;99807.18;2377718;81;25754;-72
2021/12/11 10:17:25;;;;;;;56.60;27.87;;;;;;;9.44;61.14;99818.35;2434194;80;25751;-74
2021/12/11 10:21:01;;;;;;;59.85;27.95;;;;;;;9.43;60.72;99821.81;2434973;80;25723;-72
2021/12/11 10:24:27;;;;;;;53.15;25.00;;;;;;;9.45;60.27;99820.56;2447851;79;25721;-73
2021/12/11 10:27:48;;;;;;;41.88;23.25;;;;;;;9.47;60.08;99831.84;2450769;79;25773;-76
2021/12/11 10:31:15;;;;;;;57.80;26.37;;;;;;;9.49;59.84;99836.67;2448961;79;25818;-73
2021/12/11 10:34:38;;;;;;;65.08;30.40;;;;;;;9.54;60.61;99836.32;2439366;78;25850;-72
2021/12/11 10:38:02;;;;;;;55.83;29.57;;;;;;;9.64;61.77;99834.77;2434707;80;26350;-73
2021/12/11 10:41:30;;;;;;;61.23;28.75;;;;;;;9.73;62.15;99837.55;2434240;79;25640;-73
2021/12/11 10:44:56;;;;;;;66.22;29.45;;;;;;;9.83;62.78;99847.71;2435277;79;25696;-72
2021/12/11 10:48:22;;;;;;;63.70;30.95;;;;;;;9.89;63.18;99848.70;2448989;79;25622;-82
2021/12/11 10:51:58;;;;;;;71.15;30.60;;;;;;;10.23;64.83;99854.48;2455365;79;26281;-78
2021/12/11 10:55:24;;;;;;;57.55;26.80;;;;;;;10.97;64.74;99859.10;2464139;79;26257;-82
2021/12/11 11:00:02;;;;;;;58.87;28.50;;;;;;;11.90;64.62;99851.94;2536340;77;30587;-79
2021/12/11 11:06:42;;;;;;;71.87;28.17;;;;;;;12.84;64.02;99852.23;2500640;77;30759;-78
2021/12/11 11:10:09;;;;;;;63.35;28.40;;;;;;;13.21;63.43;99863.33;2496547;78;25697;-77
2021/12/11 11:13:30;;;;;;;53.42;27.02;;;;;;;13.59;62.91;99861.31;2498377;78;25184;-75
2021/12/11 11:16:56;;;;;;;55.20;27.90;;;;;;;13.97;62.38;99857.03;2503347;77;25640;-75
2021/12/11 11:20:23;;;;;;;60.25;27.42;;;;;;;14.31;61.83;99856.61;2500266;78;25934;-73
2021/12/11 11:23:46;;;;;;;59.13;29.05;;;;;;;14.63;61.17;99857.51;2494488;78;25740;-73
2021/12/11 11:28:54;;;;;;;69.80;34.58;;;;;;;15.07;60.00;99859.16;2519796;77;30846;-75
2021/12/11 11:32:21;;;;;;;81.05;38.35;;;;;;;15.02;57.42;99863.57;2470952;78;25871;-75
2021/12/11 11:35:47;;;;;;;86.47;42.10;;;;;;;14.61;55.84;99867.16;2471089;78;25670;-70
2021/12/11 11:39:12;;;;;;;80.53;39.45;;;;;;;13.10;53.75;99885.97;2476135;78;25657;-70
2021/12/11 11:42:35;;;;;;;89.72;42.60;;;;;;;12.49;53.42;99890.80;2468933;78;25630;-74
2021/12/11 11:45:59;;;;;;;93.82;42.48;;;;;;;12.49;53.42;99890.80;2476071;78;25635;-77
2021/12/11 11:49:21;;;;;;;97.27;41.28;;;;;;;11.99;53.30;99899.05;2484407;78;25957;-73
2021/12/11 11:52:43;;;;;;;90.28;40.40;;;;;;;11.54;53.21;99910.69;2474161;78;25646;-70
2021/12/11 11:56:08;;;;;;;93.42;42.40;;;;;;;11.13;53.17;99914.07;2475652;78;25784;-69
2021/12/11 11:59:30;;;;;;;95.70;41.13;;;;;;;10.74;53.30;99910.92;2474435;78;26285;-70
2021/12/11 12:02:53;;;;;;;94.50;41.33;;;;;;;10.46;53.84;99918.73;2464222;80;25159;-71
2021/12/11 12:06:24;;;;;;;82.30;39.00;;;;;;;10.34;54.29;99919.82;2471213;78;25855;-75
2021/12/11 12:09:48;;;;;;;85.00;37.10;;;;;;;10.29;57.08;99912.33;2511146;78;25909;-76
2021/12/11 12:13:11;;;;;;;84.03;38.67;;;;;;;10.83;58.69;99924.50;2489889;78;25812;-75
2021/12/11 12:16:35;;;;;;;88.42;40.30;;;;;;;10.93;57.52;99938.56;2484591;78;25688;-73
2021/12/11 12:19:57;;;;;;;92.60;42.73;;;;;;;10.84;57.15;99938.02;2478303;78;25868;-70
2021/12/11 12:23:20;;;;;;;80.38;40.17;;;;;;;10.73;56.91;99946.98;2471113;80;25742;-70
2021/12/11 12:26:42;;;;;;;83.78;39.75;;;;;;;10.62;56.75;99951.99;2470971;79;25815;-72
2021/12/11 12:30:15;;;;;;;85.42;39.78;;;;;;;10.52;56.62;99947.48;2471403;80;25769;-68
2021/12/11 12:33:38;;;;;;;89.37;40.58;;;;;;;10.44;56.47;99948.22;2470475;79;25745;-69
2021/12/11 12:37:03;;;;;;;81.17;39.55;;;;;;;10.35;56.39;99949.80;2471071;79;25708;-69
2021/12/11 12:40:32;;;;;;;80.50;40.50;;;;;;;10.27;56.37;99957.92;2469972;80;25687;-69
2021/12/11 12:47:37;;;;;;;88.42;39.25;;;;;;;10.12;56.20;99958.49;2489919;78;25240;-69
2021/12/11 12:51:04;;;;;;;88.65;40.50;;;;;;;10.04;56.18;99967.88;2509209;78;25580;-75
2021/12/11 12:54:26;;;;;;;88.72;40.95;;;;;;;9.99;56.18;99971.23;2480804;78;25852;-71
2021/12/11 12:57:52;;;;;;;85.55;39.85;;;;;;;9.91;56.13;99970.66;2472947;78;25162;-73
2021/12/11 13:01:21;;;;;;;89.45;41.75;;;;;;;9.86;56.09;99976.21;2472967;79;25662;-72
2021/12/11 13:04:51;;;;;;;80.62;39.88;;;;;;;9.81;56.07;99977.83;2473302;79;25572;-71
2021/12/11 13:08:18;;;;;;;89.28;41.65;;;;;;;9.76;56.05;99979.48;2472962;78;25714;-77
2021/12/11 13:11:56;;;;;;;92.27;39.55;;;;;;;9.70;56.02;99986.73;2477255;78;26211;-80
2021/12/11 13:19:08;;;;;;;62.50;30.57;;;;;;;9.58;56.04;99995.99;2350327;80;26272;-78
2021/12/11 13:22:34;;;;;;;77.40;36.00;;;;;;;9.77;61.57;100002.48;2335395;84;26316;-73
2021/12/11 13:25:59;;;;;;;81.50;35.50;;;;;;;10.25;59.86;100009.50;2397618;81;25678;-80
2021/12/11 13:29:31;;;;;;;93.65;42.78;;;;;;;10.20;58.65;100018.97;2397866;82;25651;-78
2021/12/11 13:32:52;;;;;;;95.57;42.90;;;;;;;10.06;58.12;100018.28;2375553;82;25594;-81
2021/12/11 13:36:14;;;;;;;94.03;43.95;;;;;;;9.85;57.23;100020.42;2387890;81;25542;-77
2021/12/11 13:39:35;;;;;;;90.35;41.50;;;;;;;9.64;56.83;100024.77;2387492;82;25706;-72
2021/12/11 13:42:57;;;;;;;73.17;35.10;;;;;;;9.48;56.73;100025.27;2386769;81;25725;-73
2021/12/11 13:46:19;;;;;;;72.30;34.15;;;;;;;9.64;58.96;100028.66;2388485;82;26438;-76
2021/12/11 13:49:41;;;;;;;72.10;35.80;;;;;;;9.75;58.57;100035.40;2388319;81;25650;-78
2021/12/11 13:53:05;;;;;;;76.75;36.68;;;;;;;9.78;58.49;100034.16;2387943;81;25570;-75
2021/12/11 13:56:32;;;;;;;80.20;38.92;;;;;;;9.73;58.03;100039.71;2388445;82;25651;-73
2021/12/11 13:59:57;;;;;;;81.28;36.95;;;;;;;9.67;57.99;100039.15;2386274;82;26305;-74
2021/12/11 14:03:21;;;;;;;82.08;40.05;;;;;;;9.61;57.88;100038.58;2388459;82;26332;-74
2021/12/11 14:07:03;;;;;;;94.37;40.10;;;;;;;9.55;57.86;100044.98;2387040;82;25788;-73
2021/12/11 14:10:35;;;;;;;89.15;39.25;;;;;;;9.51;57.73;100040.95;2387353;82;25685;-75
2021/12/11 14:13:55;;;;;;;99.65;43.83;;;;;;;9.45;57.64;100036.52;2387239;81;25598;-72
2021/12/11 14:17:19;;;;;;;85.50;40.85;;;;;;;9.38;57.56;100039.79;2387747;82;25644;-72
2021/12/11 14:20:43;;;;;;;87.45;39.03;;;;;;;9.33;57.45;100042.72;2381146;81;25781;-74
2021/12/11 14:24:07;;;;;;;92.15;42.38;;;;;;;9.27;57.37;100046.05;2375971;83;25640;-71
2021/12/11 14:27:28;;;;;;;93.20;42.40;;;;;;;9.21;57.26;100048.50;2379508;82;25741;-71
2021/12/11 14:30:54;;;;;;;87.27;40.92;;;;;;;9.16;57.23;100044.50;2379399;83;25732;-75
2021/12/11 14:34:16;;;;;;;83.87;40.63;;;;;;;9.12;57.17;100040.08;2379429;82;25602;-71
2021/12/11 14:37:38;;;;;;;95.10;42.53;;;;;;;9.08;57.10;100049.95;2380150;81;25308;-73
2021/12/11 14:41:00;;;;;;;88.03;42.25;;;;;;;9.02;57.08;100049.80;2379594;82;25818;-73
2021/12/11 14:44:31;;;;;;;95.40;42.38;;;;;;;8.98;57.05;100047.55;2380121;82;25602;-73
2021/12/11 14:47:54;;;;;;;93.33;41.65;;;;;;;8.94;56.99;100061.32;2378668;82;25726;-73
2021/12/11 14:51:19;;;;;;;96.50;43.35;;;;;;;8.90;56.98;100063.78;2378593;81;25681;-72
2021/12/11 14:54:48;;;;;;;93.35;42.38;;;;;;;8.85;56.95;100071.48;2378099;82;25616;-75
2021/12/11 14:58:13;;;;;;;92.10;40.48;;;;;;;8.78;56.81;100066.09;2377527;81;25946;-76
2021/12/11 15:01:51;;;;;;;93.37;40.10;;;;;;;8.67;56.62;100060.59;2378079;81;25685;-77
2021/12/11 15:05:22;;;;;;;83.97;39.67;;;;;;;8.56;56.51;100063.34;2285085;85;25734;-78
2021/12/11 15:08:44;;;;;;;92.10;39.65;;;;;;;8.44;56.48;100063.48;2252970;86;25753;-80
2021/12/11 15:12:07;;;;;;;85.00;40.28;;;;;;;8.36;56.44;100067.95;2255066;86;26507;-74
2021/12/11 15:15:28;;;;;;;84.92;38.75;;;;;;;8.24;56.41;100064.62;2248434;87;25940;-75
2021/12/11 15:18:52;;;;;;;89.77;38.40;;;;;;;8.16;56.49;100064.80;2254434;87;25269;-75
2021/12/11 15:22:17;;;;;;;85.75;38.53;;;;;;;8.09;56.56;100072.84;2246813;86;26436;-75
2021/12/11 15:25:40;;;;;;;102.97;43.68;;;;;;;8.05;56.56;100082.68;2250765;87;25864;-80
2021/12/11 15:29:03;;;;;;;110.28;47.20;;;;;;;7.97;56.56;100086.78;2236641;87;25761;-78
2021/12/11 15:32:25;;;;;;;101.10;46.10;;;;;;;7.91;56.57;100096.98;2239406;86;25746;-78
2021/12/11 15:36:02;;;;;;;116.53;49.13;;;;;;;8.08;57.77;100108.73;2239029;87;25799;-78
2021/12/11 15:39:37;;;;;;;112.37;49.67;;;;;;;8.20;57.61;100116.89;2248752;87;25682;-75
2021/12/11 15:43:03;;;;;;;114.03;48.68;;;;;;;8.12;57.16;100122.69;2252873;86;26462;-77
2021/12/11 15:46:30;;;;;;;119.90;51.48;;;;;;;7.97;56.83;100150.38;2254759;87;25683;-76
2021/12/11 15:49:54;;;;;;;119.95;47.17;;;;;;;7.90;56.85;100160.11;2253776;87;25794;-78
2021/12/11 15:53:16;;;;;;;107.12;49.53;;;;;;;7.86;56.87;100171.20;2254301;87;25748;-77
2021/12/11 15:56:42;;;;;;;111.22;45.78;;;;;;;7.79;56.83;100176.20;2251771;87;25819;-74
2021/12/11 16:00:05;;;;;;;108.97;48.68;;;;;;;7.74;56.95;100179.09;2264826;83;25975;-77
2021/12/11 16:03:29;;;;;;;102.32;44.35;;;;;;;7.78;57.05;100185.25;2378058;81;26032;-75
2021/12/11 16:06:53;;;;;;;103.42;44.85;;;;;;;7.86;57.19;100195.44;2379001;82;26327;-75
2021/12/11 16:10:15;;;;;;;101.25;47.40;;;;;;;7.93;57.31;100193.53;2364073;82;25860;-76
2021/12/11 16:13:37;;;;;;;99.77;44.90;;;;;;;7.99;57.47;100191.10;2361422;83;25729;-74
2021/12/11 16:17:11;;;;;;;99.40;42.43;;;;;;;8.05;57.58;100197.78;2364902;81;25890;-74
2021/12/11 16:20:43;;;;;;;98.20;43.10;;;;;;;8.10;57.69;100199.24;2363436;82;26437;-73
2021/12/11 16:24:01;;;;;;;90.38;42.03;;;;;;;8.15;57.80;100198.08;2376434;82;25722;-74
2021/12/11 16:27:25;;;;;;;98.72;43.65;;;;;;;8.18;57.86;100202.94;2380578;82;25178;-74
2021/12/11 16:30:55;;;;;;;86.87;40.65;;;;;;;8.22;57.93;100209.11;2363302;82;25712;-78
2021/12/11 16:34:16;;;;;;;93.80;40.60;;;;;;;8.25;58.01;100206.61;2384123;82;25227;-78
2021/12/11 16:37:48;;;;;;;93.33;41.10;;;;;;;8.29;58.08;100217.55;2387695;82;25650;-78